Thunder radar more information blitzortung!


Radar de pluja more information rain snow radar


Visita la nostra xarxa de llocs de meteo:

Template documentation
and downloads

And another site



No particular awareness of the weather is required.    There are no Weather-warnings

Pagina Historial Weather Underground text

Diari Resum Octubre 11, 2017 Unitats:  Tant    Imperial   Mètric
« Previous Dia
SegĂźent Dia »
Diari Setmana Mensual Anual Personalitzada
  Maxima: Minima: Media:
Temperatura: 79.2 °F /  26.2 °C 55.9 °F /  13.3 °C 68.9 °F /  20.5 °C
Punt de rosada: 63 °F /  17.2 °C 53.1 °F /  11.7 °C 59.2 °F /  15.1 °C
Humitat: 91 % 53 % 73 %
Wind Speed: 12.7 mph /  20.4 km/h - 3.5 mph /  5.7 km/h
RĂ fegues de vent: 12.7 mph /  20.4 km/h - -
Vent:- - SW
Pression baro: 30.2 in /  1023.9 hPa 30.2 in /  1020.9 hPa -
Precipitacions: 0 in /  0.0 mm    
Historical Graphs
 
 
Dades de taula per Octubre 11, 2017
Temps Temperatura Punt de rosada Pression baro Vent Wind Speed RĂ fegues de vent Humitat Rainfall Rate (Hourly)
00:00 59 °F /  15.0 °C 55.4 °F /  13.0 °C 30.2 in /  1021.9 hPa Calm   1 mph /  1.6 km/h 88 % 0 in /  0.0 mm
00:02 64 °F /  17.8 °C 58.8 °F /  14.9 °C 30.2 in /  1021.9 hPa Calm     83 % 0 in /  0.0 mm
00:07 63.9 °F /  17.7 °C 58.6 °F /  14.8 °C 30.2 in /  1021.9 hPa Calm     83 % 0 in /  0.0 mm
00:10 58.6 °F /  14.8 °C 55 °F /  12.8 °C 30.2 in /  1021.9 hPa SW 1 mph /  1.6 km/h 2 mph /  3.2 km/h 88 % 0 in /  0.0 mm
00:12 63.7 °F /  17.6 °C 58.5 °F /  14.7 °C 30.2 in /  1021.9 hPa Calm     83 % 0 in /  0.0 mm
00:20 58.5 °F /  14.7 °C 55.2 °F /  12.9 °C 30.2 in /  1021.9 hPa Calm   1 mph /  1.6 km/h 89 % 0 in /  0.0 mm
00:30 58.3 °F /  14.6 °C 55 °F /  12.8 °C 30.2 in /  1021.9 hPa Calm     89 % 0 in /  0.0 mm
00:40 58.1 °F /  14.5 °C 54.9 °F /  12.7 °C 30.2 in /  1021.9 hPa Calm     89 % 0 in /  0.0 mm
00:50 57.9 °F /  14.4 °C 54.7 °F /  12.6 °C 30.2 in /  1021.9 hPa Calm     89 % 0 in /  0.0 mm
01:00 57.7 °F /  14.3 °C 54.5 °F /  12.5 °C 30.2 in /  1021.9 hPa Calm     89 % 0 in /  0.0 mm
01:10 57.4 °F /  14.1 °C 54.1 °F /  12.3 °C 30.2 in /  1021.9 hPa Calm     89 % 0 in /  0.0 mm
01:20 57.4 °F /  14.1 °C 54.1 °F /  12.3 °C 30.2 in /  1021.9 hPa Calm     89 % 0 in /  0.0 mm
01:30 56.8 °F /  13.8 °C 53.6 °F /  12.0 °C 30.2 in /  1021.9 hPa Calm   1 mph /  1.6 km/h 89 % 0 in /  0.0 mm
01:40 56.7 °F /  13.7 °C 53.4 °F /  11.9 °C 30.2 in /  1021.9 hPa SW 1 mph /  1.6 km/h 2 mph /  3.2 km/h 89 % 0 in /  0.0 mm
01:50 56.8 °F /  13.8 °C 53.6 °F /  12.0 °C 30.2 in /  1021.9 hPa Calm   2 mph /  3.2 km/h 89 % 0 in /  0.0 mm
02:00 56.7 °F /  13.7 °C 53.4 °F /  11.9 °C 30.2 in /  1021.9 hPa Calm     89 % 0 in /  0.0 mm
02:10 56.5 °F /  13.6 °C 53.2 °F /  11.8 °C 30.2 in /  1021.9 hPa Calm   1 mph /  1.6 km/h 89 % 0 in /  0.0 mm
02:20 56.7 °F /  13.7 °C 53.8 °F /  12.1 °C 30.2 in /  1021.9 hPa SW 1 mph /  1.6 km/h 2 mph /  3.2 km/h 90 % 0 in /  0.0 mm
02:30 56.3 °F /  13.5 °C 53.4 °F /  11.9 °C 30.2 in /  1021.9 hPa Calm     90 % 0 in /  0.0 mm
02:40 56.1 °F /  13.4 °C 53.2 °F /  11.8 °C 30.2 in /  1021.9 hPa SW 1 mph /  1.6 km/h 2 mph /  3.2 km/h 90 % 0 in /  0.0 mm
02:50 56.1 °F /  13.4 °C 53.2 °F /  11.8 °C 30.2 in /  1021.9 hPa SW 1 mph /  1.6 km/h 1 mph /  1.6 km/h 90 % 0 in /  0.0 mm
03:00 55.9 °F /  13.3 °C 53.1 °F /  11.7 °C 30.2 in /  1020.9 hPa Calm     90 % 0 in /  0.0 mm
03:10 56.1 °F /  13.4 °C 53.2 °F /  11.8 °C 30.2 in /  1020.9 hPa Calm   1 mph /  1.6 km/h 90 % 0 in /  0.0 mm
03:20 56.5 °F /  13.6 °C 54 °F /  12.2 °C 30.2 in /  1021.9 hPa SW 1 mph /  1.6 km/h 2 mph /  3.2 km/h 91 % 0 in /  0.0 mm
03:30 56.7 °F /  13.7 °C 54.1 °F /  12.3 °C 30.2 in /  1020.9 hPa Calm     91 % 0 in /  0.0 mm
03:40 56.7 °F /  13.7 °C 53.8 °F /  12.1 °C 30.2 in /  1020.9 hPa Calm   2 mph /  3.2 km/h 90 % 0 in /  0.0 mm
03:50 56.8 °F /  13.8 °C 54 °F /  12.2 °C 30.2 in /  1021.9 hPa SW 1 mph /  1.6 km/h 1 mph /  1.6 km/h 90 % 0 in /  0.0 mm
04:00 57.2 °F /  14.0 °C 54.3 °F /  12.4 °C 30.2 in /  1021.9 hPa SW 1 mph /  1.6 km/h 2 mph /  3.2 km/h 90 % 0 in /  0.0 mm
04:20 57.7 °F /  14.3 °C 54.9 °F /  12.7 °C 30.2 in /  1022.9 hPa SW 2 mph /  3.2 km/h 2 mph /  3.2 km/h 90 % 0 in /  0.0 mm
04:30 58.3 °F /  14.6 °C 55.4 °F /  13.0 °C 30.2 in /  1022.9 hPa SW 1 mph /  1.6 km/h 3 mph /  4.8 km/h 90 % 0 in /  0.0 mm
04:40 58.8 °F /  14.9 °C 55.9 °F /  13.3 °C 30.2 in /  1022.9 hPa SW 2 mph /  3.2 km/h 3 mph /  4.8 km/h 90 % 0 in /  0.0 mm
04:50 59.9 °F /  15.5 °C 57 °F /  13.9 °C 30.2 in /  1022.9 hPa SW 1 mph /  1.6 km/h 3 mph /  4.8 km/h 90 % 0 in /  0.0 mm
05:00 60.6 °F /  15.9 °C 57.4 °F /  14.1 °C 30.2 in /  1022.9 hPa SW 1 mph /  1.6 km/h 2 mph /  3.2 km/h 89 % 0 in /  0.0 mm
05:10 61.5 °F /  16.4 °C 57.9 °F /  14.4 °C 30.2 in /  1022.9 hPa SW 1 mph /  1.6 km/h 3 mph /  4.8 km/h 88 % 0 in /  0.0 mm
05:20 62.8 °F /  17.1 °C 58.8 °F /  14.9 °C 30.2 in /  1022.9 hPa Calm   2 mph /  3.2 km/h 87 % 0 in /  0.0 mm
10:29 64.6 °F /  18.1 °C 59.5 °F /  15.3 °C 30.2 in /  1022.9 hPa SSE 2.2 mph /  3.5 km/h 2.2 mph /  3.5 km/h 84 % 0 in /  0.0 mm
10:30 64.6 °F /  18.1 °C 59.5 °F /  15.3 °C 30.2 in /  1022.9 hPa SE 2.3 mph /  3.7 km/h 2.3 mph /  3.7 km/h 84 % 0 in /  0.0 mm
10:35 65.3 °F /  18.5 °C 60.1 °F /  15.6 °C 30.2 in /  1022.9 hPa SE 3.6 mph /  5.8 km/h 3.6 mph /  5.8 km/h 83 % 0 in /  0.0 mm
10:40 66.2 °F /  19.0 °C 59.7 °F /  15.4 °C 30.2 in /  1022.9 hPa ESE 2.3 mph /  3.7 km/h 2.3 mph /  3.7 km/h 80 % 0 in /  0.0 mm
10:45 67.1 °F /  19.5 °C 60.4 °F /  15.8 °C 30.2 in /  1023.9 hPa South 2.3 mph /  3.7 km/h 2.3 mph /  3.7 km/h 79 % 0 in /  0.0 mm
10:50 67.8 °F /  19.9 °C 61.2 °F /  16.2 °C 30.2 in /  1023.9 hPa SW 2.3 mph /  3.7 km/h 2.3 mph /  3.7 km/h 79 % 0 in /  0.0 mm
10:55 68.5 °F /  20.3 °C 60.6 °F /  15.9 °C 30.2 in /  1023.9 hPa SE 2.3 mph /  3.7 km/h 2.3 mph /  3.7 km/h 76 % 0 in /  0.0 mm
11:00 68.9 °F /  20.5 °C 61.3 °F /  16.3 °C 30.2 in /  1023.9 hPa ESE 2.4 mph /  3.9 km/h 2.4 mph /  3.9 km/h 77 % 0 in /  0.0 mm
11:05 68.5 °F /  20.3 °C 60.3 °F /  15.7 °C 30.2 in /  1023.9 hPa ENE 2.3 mph /  3.7 km/h 2.3 mph /  3.7 km/h 75 % 0 in /  0.0 mm
11:10 68.5 °F /  20.3 °C 60.3 °F /  15.7 °C 30.2 in /  1023.9 hPa East 2.4 mph /  3.9 km/h 2.4 mph /  3.9 km/h 75 % 0 in /  0.0 mm
11:15 69.1 °F /  20.6 °C 60.8 °F /  16.0 °C 30.2 in /  1022.9 hPa ESE 2.3 mph /  3.7 km/h 2.3 mph /  3.7 km/h 75 % 0 in /  0.0 mm
11:20 70 °F /  21.1 °C 61.3 °F /  16.3 °C 30.2 in /  1022.9 hPa SSE 2.3 mph /  3.7 km/h 2.3 mph /  3.7 km/h 74 % 0 in /  0.0 mm
11:25 70.5 °F /  21.4 °C 61.9 °F /  16.6 °C 30.2 in /  1022.9 hPa West 2.3 mph /  3.7 km/h 2.3 mph /  3.7 km/h 74 % 0 in /  0.0 mm
11:30 70.5 °F /  21.4 °C 61.3 °F /  16.3 °C 30.2 in /  1022.9 hPa ESE 2.4 mph /  3.9 km/h 2.4 mph /  3.9 km/h 73 % 0 in /  0.0 mm
11:35 71.1 °F /  21.7 °C 61.2 °F /  16.2 °C 30.2 in /  1022.9 hPa SSE 3.5 mph /  5.6 km/h 3.5 mph /  5.6 km/h 71 % 0 in /  0.0 mm
11:40 71.8 °F /  22.1 °C 62.2 °F /  16.8 °C 30.2 in /  1022.9 hPa NW 3.5 mph /  5.6 km/h 3.5 mph /  5.6 km/h 72 % 0 in /  0.0 mm
11:45 72.7 °F /  22.6 °C 62.8 °F /  17.1 °C 30.2 in /  1022.9 hPa SSW 1.4 mph /  2.3 km/h   71 % 0 in /  0.0 mm
11:50 72.5 °F /  22.5 °C 62.2 °F /  16.8 °C 30.2 in /  1022.9 hPa SW 2.6 mph /  4.2 km/h 2.6 mph /  4.2 km/h 70 % 0 in /  0.0 mm
11:55 72 °F /  22.2 °C 61.5 °F /  16.4 °C 30.2 in /  1022.9 hPa South 3.5 mph /  5.6 km/h 3.5 mph /  5.6 km/h 70 % 0 in /  0.0 mm
12:00 72.7 °F /  22.6 °C 61.9 °F /  16.6 °C 30.2 in /  1022.9 hPa SSE 4.6 mph /  7.4 km/h 4.6 mph /  7.4 km/h 69 % 0 in /  0.0 mm
12:05 73.6 °F /  23.1 °C 62.8 °F /  17.1 °C 30.2 in /  1022.9 hPa WNW 4.6 mph /  7.4 km/h 4.6 mph /  7.4 km/h 69 % 0 in /  0.0 mm
12:10 73 °F /  22.8 °C 62.2 °F /  16.8 °C 30.2 in /  1022.9 hPa South 3.5 mph /  5.6 km/h 3.5 mph /  5.6 km/h 69 % 0 in /  0.0 mm
12:15 73.8 °F /  23.2 °C 62.4 °F /  16.9 °C 30.2 in /  1022.9 hPa SW 4.6 mph /  7.4 km/h 4.6 mph /  7.4 km/h 68 % 0 in /  0.0 mm
12:20 74.1 °F /  23.4 °C 63 °F /  17.2 °C 30.2 in /  1022.9 hPa SW 6.9 mph /  11.1 km/h 6.9 mph /  11.1 km/h 68 % 0 in /  0.0 mm
12:25 74.7 °F /  23.7 °C 63 °F /  17.2 °C 30.2 in /  1022.9 hPa SW 4.9 mph /  7.9 km/h 4.9 mph /  7.9 km/h 67 % 0 in /  0.0 mm
12:30 75.7 °F /  24.3 °C 62.8 °F /  17.1 °C 30.2 in /  1022.9 hPa SSW 2.9 mph /  4.7 km/h 2.9 mph /  4.7 km/h 64 % 0 in /  0.0 mm
12:35 75.6 °F /  24.2 °C 62.1 °F /  16.7 °C 30.2 in /  1022.9 hPa SSW 6.9 mph /  11.1 km/h 6.9 mph /  11.1 km/h 63 % 0 in /  0.0 mm
12:40 75.2 °F /  24.0 °C 61.7 °F /  16.5 °C 30.2 in /  1022.9 hPa South 5.8 mph /  9.3 km/h 5.8 mph /  9.3 km/h 63 % 0 in /  0.0 mm
12:45 75 °F /  23.9 °C 62.1 °F /  16.7 °C 30.2 in /  1022.9 hPa SW 5.8 mph /  9.3 km/h 5.8 mph /  9.3 km/h 64 % 0 in /  0.0 mm
12:50 74.7 °F /  23.7 °C 61.7 °F /  16.5 °C 30.2 in /  1022.9 hPa SW 6.9 mph /  11.1 km/h 6.9 mph /  11.1 km/h 64 % 0 in /  0.0 mm
12:55 75.6 °F /  24.2 °C 62.1 °F /  16.7 °C 30.2 in /  1022.9 hPa SSW 7.8 mph /  12.6 km/h 7.8 mph /  12.6 km/h 63 % 0 in /  0.0 mm
13:00 76.3 °F /  24.6 °C 61.9 °F /  16.6 °C 30.2 in /  1022.9 hPa SW 5.4 mph /  8.7 km/h 5.4 mph /  8.7 km/h 61 % 0 in /  0.0 mm
13:05 76.1 °F /  24.5 °C 61.7 °F /  16.5 °C 30.2 in /  1022.9 hPa South 3.5 mph /  5.6 km/h 3.5 mph /  5.6 km/h 61 % 0 in /  0.0 mm
13:10 75.7 °F /  24.3 °C 61.3 °F /  16.3 °C 30.2 in /  1022.9 hPa West 4 mph /  6.4 km/h 4 mph /  6.4 km/h 61 % 0 in /  0.0 mm
13:15 76.3 °F /  24.6 °C 61.9 °F /  16.6 °C 30.2 in /  1022.9 hPa SW 4.6 mph /  7.4 km/h 4.6 mph /  7.4 km/h 61 % 0 in /  0.0 mm
13:20 76.3 °F /  24.6 °C 61.3 °F /  16.3 °C 30.2 in /  1022.9 hPa SSE 2.3 mph /  3.7 km/h 2.3 mph /  3.7 km/h 60 % 0 in /  0.0 mm
13:25 76.5 °F /  24.7 °C 61.2 °F /  16.2 °C 30.2 in /  1022.9 hPa SSE 6.9 mph /  11.1 km/h 6.9 mph /  11.1 km/h 59 % 0 in /  0.0 mm
13:30 77.7 °F /  25.4 °C 61.3 °F /  16.3 °C 30.2 in /  1021.9 hPa South 2.6 mph /  4.2 km/h 2.6 mph /  4.2 km/h 57 % 0 in /  0.0 mm
13:35 78.1 °F /  25.6 °C 61.5 °F /  16.4 °C 30.2 in /  1021.9 hPa SW 5.8 mph /  9.3 km/h 5.8 mph /  9.3 km/h 57 % 0 in /  0.0 mm
13:40 77.9 °F /  25.5 °C 61.3 °F /  16.3 °C 30.2 in /  1021.9 hPa SSW 5.8 mph /  9.3 km/h 5.8 mph /  9.3 km/h 57 % 0 in /  0.0 mm
13:45 78.3 °F /  25.7 °C 61.3 °F /  16.3 °C 30.2 in /  1021.9 hPa SSW 3.5 mph /  5.6 km/h 3.5 mph /  5.6 km/h 56 % 0 in /  0.0 mm
13:50 78.3 °F /  25.7 °C 60.8 °F /  16.0 °C 30.2 in /  1021.9 hPa WSW 6.9 mph /  11.1 km/h 6.9 mph /  11.1 km/h 55 % 0 in /  0.0 mm
13:55 78.8 °F /  26.0 °C 61.3 °F /  16.3 °C 30.2 in /  1021.9 hPa SW 3.5 mph /  5.6 km/h 3.5 mph /  5.6 km/h 55 % 0 in /  0.0 mm
14:00 79.2 °F /  26.2 °C 62.1 °F /  16.7 °C 30.2 in /  1021.9 hPa West 6.9 mph /  11.1 km/h 6.9 mph /  11.1 km/h 56 % 0 in /  0.0 mm
14:05 77.7 °F /  25.4 °C 59.7 °F /  15.4 °C 30.2 in /  1021.9 hPa SW 4.7 mph /  7.6 km/h 4.7 mph /  7.6 km/h 54 % 0 in /  0.0 mm
14:10 78.6 °F /  25.9 °C 60.6 °F /  15.9 °C 30.2 in /  1021.9 hPa SW 4.6 mph /  7.4 km/h 4.6 mph /  7.4 km/h 54 % 0 in /  0.0 mm
14:15 78.4 °F /  25.8 °C 60.4 °F /  15.8 °C 30.2 in /  1021.9 hPa South 5.8 mph /  9.3 km/h 5.8 mph /  9.3 km/h 54 % 0 in /  0.0 mm
14:20 79 °F /  26.1 °C 61 °F /  16.1 °C 30.2 in /  1021.9 hPa SW 8.1 mph /  13.0 km/h 8.1 mph /  13.0 km/h 54 % 0 in /  0.0 mm
14:25 78.4 °F /  25.8 °C 60.4 °F /  15.8 °C 30.2 in /  1021.9 hPa SW 6.9 mph /  11.1 km/h 6.9 mph /  11.1 km/h 54 % 0 in /  0.0 mm
14:30 78.3 °F /  25.7 °C 60.3 °F /  15.7 °C 30.2 in /  1021.9 hPa SW 3.5 mph /  5.6 km/h 3.5 mph /  5.6 km/h 54 % 0 in /  0.0 mm
14:35 78.3 °F /  25.7 °C 60.3 °F /  15.7 °C 30.2 in /  1021.9 hPa WSW 9.2 mph /  14.8 km/h 9.2 mph /  14.8 km/h 54 % 0 in /  0.0 mm
14:40 78.4 °F /  25.8 °C 60.4 °F /  15.8 °C 30.2 in /  1021.9 hPa SSE 6.9 mph /  11.1 km/h 6.9 mph /  11.1 km/h 54 % 0 in /  0.0 mm
14:45 78.3 °F /  25.7 °C 60.3 °F /  15.7 °C 30.2 in /  1021.9 hPa WSW 6.9 mph /  11.1 km/h 6.9 mph /  11.1 km/h 54 % 0 in /  0.0 mm
14:50 78.3 °F /  25.7 °C 60.3 °F /  15.7 °C 30.2 in /  1021.9 hPa South 4.7 mph /  7.6 km/h 4.7 mph /  7.6 km/h 54 % 0 in /  0.0 mm
14:55 77.7 °F /  25.4 °C 59.7 °F /  15.4 °C 30.2 in /  1021.9 hPa SW 9.2 mph /  14.8 km/h 9.2 mph /  14.8 km/h 54 % 0 in /  0.0 mm
15:00 77.5 °F /  25.3 °C 59.5 °F /  15.3 °C 30.2 in /  1021.9 hPa SSE 8.1 mph /  13.0 km/h 8.1 mph /  13.0 km/h 54 % 0 in /  0.0 mm
15:05 78.1 °F /  25.6 °C 60.1 °F /  15.6 °C 30.2 in /  1021.9 hPa SSW 5.8 mph /  9.3 km/h 5.8 mph /  9.3 km/h 54 % 0 in /  0.0 mm
15:10 78.1 °F /  25.6 °C 60.1 °F /  15.6 °C 30.2 in /  1021.9 hPa SW 6.9 mph /  11.1 km/h 6.9 mph /  11.1 km/h 54 % 0 in /  0.0 mm
15:15 78.8 °F /  26.0 °C 61.3 °F /  16.3 °C 30.2 in /  1021.9 hPa SW 4.9 mph /  7.9 km/h 4.9 mph /  7.9 km/h 55 % 0 in /  0.0 mm
15:20 78.1 °F /  25.6 °C 60.1 °F /  15.6 °C 30.2 in /  1021.9 hPa WSW 9.4 mph /  15.1 km/h 9.4 mph /  15.1 km/h 54 % 0 in /  0.0 mm
15:25 77.5 °F /  25.3 °C 59.5 °F /  15.3 °C 30.2 in /  1021.9 hPa SSE 9.2 mph /  14.8 km/h 9.2 mph /  14.8 km/h 54 % 0 in /  0.0 mm
15:30 78.1 °F /  25.6 °C 60.6 °F /  15.9 °C 30.2 in /  1020.9 hPa WSW 5.8 mph /  9.3 km/h 5.8 mph /  9.3 km/h 55 % 0 in /  0.0 mm
15:35 78.3 °F /  25.7 °C 60.3 °F /  15.7 °C 30.2 in /  1020.9 hPa West 4.6 mph /  7.4 km/h 4.6 mph /  7.4 km/h 54 % 0 in /  0.0 mm
15:40 78.4 °F /  25.8 °C 60.4 °F /  15.8 °C 30.2 in /  1020.9 hPa SW 5.8 mph /  9.3 km/h 5.8 mph /  9.3 km/h 54 % 0 in /  0.0 mm
15:45 78.3 °F /  25.7 °C 60.3 °F /  15.7 °C 30.2 in /  1020.9 hPa SSW 4.6 mph /  7.4 km/h 4.6 mph /  7.4 km/h 54 % 0 in /  0.0 mm
15:50 78.1 °F /  25.6 °C 60.1 °F /  15.6 °C 30.2 in /  1020.9 hPa SSE 8.1 mph /  13.0 km/h 8.1 mph /  13.0 km/h 54 % 0 in /  0.0 mm
15:55 77.9 °F /  25.5 °C 59.9 °F /  15.5 °C 30.2 in /  1020.9 hPa SSW 10 mph /  16.1 km/h 10 mph /  16.1 km/h 54 % 0 in /  0.0 mm
16:00 77.9 °F /  25.5 °C 59.9 °F /  15.5 °C 30.2 in /  1021.9 hPa WSW 9.7 mph /  15.6 km/h 9.7 mph /  15.6 km/h 54 % 0 in /  0.0 mm
16:05 77.7 °F /  25.4 °C 59.2 °F /  15.1 °C 30.2 in /  1021.9 hPa SW 10.4 mph /  16.7 km/h 10.4 mph /  16.7 km/h 53 % 0 in /  0.0 mm
16:10 77.7 °F /  25.4 °C 59.2 °F /  15.1 °C 30.2 in /  1021.9 hPa SSW 6.2 mph /  10.0 km/h 6.2 mph /  10.0 km/h 53 % 0 in /  0.0 mm
16:11 77.7 °F /  25.4 °C 59.2 °F /  15.1 °C 30.2 in /  1021.9 hPa SSW 5.8 mph /  9.3 km/h 5.8 mph /  9.3 km/h 53 % 0 in /  0.0 mm
16:16 77.9 °F /  25.5 °C 59.9 °F /  15.5 °C 30.2 in /  1020.9 hPa South 5.8 mph /  9.3 km/h 5.8 mph /  9.3 km/h 54 % 0 in /  0.0 mm
16:21 77.5 °F /  25.3 °C 59.2 °F /  15.1 °C 30.2 in /  1020.9 hPa SW 5.6 mph /  9.0 km/h 5.6 mph /  9.0 km/h 53 % 0 in /  0.0 mm
16:26 77.9 °F /  25.5 °C 59.9 °F /  15.5 °C 30.2 in /  1020.9 hPa SSE 8.1 mph /  13.0 km/h 8.1 mph /  13.0 km/h 54 % 0 in /  0.0 mm
16:36 78.1 °F /  25.6 °C 60.1 °F /  15.6 °C 30.2 in /  1021.9 hPa SW 6.9 mph /  11.1 km/h 6.9 mph /  11.1 km/h 54 % 0 in /  0.0 mm
16:41 77.9 °F /  25.5 °C 59.9 °F /  15.5 °C 30.2 in /  1021.9 hPa WSW 5.8 mph /  9.3 km/h 5.8 mph /  9.3 km/h 54 % 0 in /  0.0 mm
16:46 77.7 °F /  25.4 °C 59.7 °F /  15.4 °C 30.2 in /  1020.9 hPa SSE 9.2 mph /  14.8 km/h 9.2 mph /  14.8 km/h 54 % 0 in /  0.0 mm
16:51 77.4 °F /  25.2 °C 59.4 °F /  15.2 °C 30.2 in /  1020.9 hPa South 8.1 mph /  13.0 km/h 8.1 mph /  13.0 km/h 54 % 0 in /  0.0 mm
16:56 77.2 °F /  25.1 °C 59.2 °F /  15.1 °C 30.2 in /  1020.9 hPa SW 8.1 mph /  13.0 km/h 8.1 mph /  13.0 km/h 54 % 0 in /  0.0 mm
17:01 77.4 °F /  25.2 °C 59.4 °F /  15.2 °C 30.2 in /  1021.9 hPa WSW 12.7 mph /  20.4 km/h 12.7 mph /  20.4 km/h 54 % 0 in /  0.0 mm
17:06 76.8 °F /  24.9 °C 59.4 °F /  15.2 °C 30.2 in /  1021.9 hPa WSW 8.1 mph /  13.0 km/h 8.1 mph /  13.0 km/h 55 % 0 in /  0.0 mm
17:11 76.8 °F /  24.9 °C 59.4 °F /  15.2 °C 30.2 in /  1021.9 hPa South 9.2 mph /  14.8 km/h 9.2 mph /  14.8 km/h 55 % 0 in /  0.0 mm
17:16 76.8 °F /  24.9 °C 59.9 °F /  15.5 °C 30.2 in /  1021.9 hPa WSW 6 mph /  9.7 km/h 6 mph /  9.7 km/h 56 % 0 in /  0.0 mm
17:21 76.5 °F /  24.7 °C 59.5 °F /  15.3 °C 30.2 in /  1021.9 hPa SW 8.1 mph /  13.0 km/h 8.1 mph /  13.0 km/h 56 % 0 in /  0.0 mm
17:26 75.9 °F /  24.4 °C 59.5 °F /  15.3 °C 30.2 in /  1021.9 hPa SW 10.4 mph /  16.7 km/h 10.4 mph /  16.7 km/h 57 % 0 in /  0.0 mm
17:31 76.1 °F /  24.5 °C 59.7 °F /  15.4 °C 30.2 in /  1020.9 hPa SW 6.2 mph /  10.0 km/h 6.2 mph /  10.0 km/h 57 % 0 in /  0.0 mm
17:36 75.6 °F /  24.2 °C 59.4 °F /  15.2 °C 30.2 in /  1020.9 hPa SSW 10.4 mph /  16.7 km/h 10.4 mph /  16.7 km/h 57 % 0 in /  0.0 mm
17:41 75.2 °F /  24.0 °C 59.4 °F /  15.2 °C 30.2 in /  1020.9 hPa SW 5.8 mph /  9.3 km/h 5.8 mph /  9.3 km/h 58 % 0 in /  0.0 mm
17:46 75.2 °F /  24.0 °C 59.4 °F /  15.2 °C 30.2 in /  1021.9 hPa SW 5.8 mph /  9.3 km/h 5.8 mph /  9.3 km/h 58 % 0 in /  0.0 mm
17:51 74.8 °F /  23.8 °C 60.1 °F /  15.6 °C 30.2 in /  1021.9 hPa SW 10.4 mph /  16.7 km/h 10.4 mph /  16.7 km/h 60 % 0 in /  0.0 mm
17:56 74.5 °F /  23.6 °C 60.1 °F /  15.6 °C 30.2 in /  1021.9 hPa South 5.8 mph /  9.3 km/h 5.8 mph /  9.3 km/h 61 % 0 in /  0.0 mm
18:01 74.5 °F /  23.6 °C 60.1 °F /  15.6 °C 30.2 in /  1021.9 hPa SW 8.5 mph /  13.7 km/h 8.5 mph /  13.7 km/h 61 % 0 in /  0.0 mm
18:06 74.5 °F /  23.6 °C 60.1 °F /  15.6 °C 30.2 in /  1021.9 hPa South 4.6 mph /  7.4 km/h 4.6 mph /  7.4 km/h 61 % 0 in /  0.0 mm
18:11 74.5 °F /  23.6 °C 60.1 °F /  15.6 °C 30.2 in /  1021.9 hPa West 4.6 mph /  7.4 km/h 4.6 mph /  7.4 km/h 61 % 0 in /  0.0 mm
18:16 73.8 °F /  23.2 °C 59.9 °F /  15.5 °C 30.2 in /  1021.9 hPa SW 9.2 mph /  14.8 km/h 9.2 mph /  14.8 km/h 62 % 0 in /  0.0 mm
18:21 73.6 °F /  23.1 °C 59.7 °F /  15.4 °C 30.2 in /  1021.9 hPa WSW 5.8 mph /  9.3 km/h 5.8 mph /  9.3 km/h 62 % 0 in /  0.0 mm
18:26 73.6 °F /  23.1 °C 59.7 °F /  15.4 °C 30.2 in /  1021.9 hPa SW 5.8 mph /  9.3 km/h 5.8 mph /  9.3 km/h 62 % 0 in /  0.0 mm
18:31 73 °F /  22.8 °C 59.7 °F /  15.4 °C 30.2 in /  1021.9 hPa WSW 5.8 mph /  9.3 km/h 5.8 mph /  9.3 km/h 63 % 0 in /  0.0 mm
18:36 72.9 °F /  22.7 °C 59.5 °F /  15.3 °C 30.2 in /  1021.9 hPa South 4.6 mph /  7.4 km/h 4.6 mph /  7.4 km/h 63 % 0 in /  0.0 mm
18:41 72.5 °F /  22.5 °C 59.5 °F /  15.3 °C 30.2 in /  1021.9 hPa West 4.6 mph /  7.4 km/h 4.6 mph /  7.4 km/h 64 % 0 in /  0.0 mm
18:46 72.1 °F /  22.3 °C 59.7 °F /  15.4 °C 30.2 in /  1021.9 hPa SW 8.1 mph /  13.0 km/h 8.1 mph /  13.0 km/h 65 % 0 in /  0.0 mm
18:51 71.8 °F /  22.1 °C 59.7 °F /  15.4 °C 30.2 in /  1021.9 hPa WSW 6.9 mph /  11.1 km/h 6.9 mph /  11.1 km/h 66 % 0 in /  0.0 mm
18:56 71.6 °F /  22.0 °C 59.5 °F /  15.3 °C 30.2 in /  1021.9 hPa West 6.9 mph /  11.1 km/h 6.9 mph /  11.1 km/h 66 % 0 in /  0.0 mm
19:01 71.2 °F /  21.8 °C 59.7 °F /  15.4 °C 30.2 in /  1021.9 hPa SW 5.8 mph /  9.3 km/h 5.8 mph /  9.3 km/h 67 % 0 in /  0.0 mm
19:06 70.9 °F /  21.6 °C 59.7 °F /  15.4 °C 30.2 in /  1021.9 hPa SSW 4.6 mph /  7.4 km/h 4.6 mph /  7.4 km/h 68 % 0 in /  0.0 mm
19:11 70.7 °F /  21.5 °C 59.5 °F /  15.3 °C 30.2 in /  1021.9 hPa SW 6 mph /  9.7 km/h 6 mph /  9.7 km/h 68 % 0 in /  0.0 mm
19:16 70.5 °F /  21.4 °C 59.9 °F /  15.5 °C 30.2 in /  1021.9 hPa SW 4.6 mph /  7.4 km/h 4.6 mph /  7.4 km/h 69 % 0 in /  0.0 mm
19:20 64.9 °F /  18.3 °C 60.1 °F /  15.6 °C 30.2 in /  1022.9 hPa Calm     84 % 0 in /  0.0 mm
19:21 70.3 °F /  21.3 °C 59.7 °F /  15.4 °C 30.2 in /  1021.9 hPa WSW 6.9 mph /  11.1 km/h 6.9 mph /  11.1 km/h 69 % 0 in /  0.0 mm
19:26 70 °F /  21.1 °C 59.7 °F /  15.4 °C 30.2 in /  1021.9 hPa South 5.9 mph /  9.5 km/h 5.9 mph /  9.5 km/h 70 % 0 in /  0.0 mm
19:30 64.8 °F /  18.2 °C 60.1 °F /  15.6 °C 30.2 in /  1023.9 hPa Calm     85 % 0 in /  0.0 mm
19:36 69.6 °F /  20.9 °C 59.7 °F /  15.4 °C 30.2 in /  1021.9 hPa SSW 3.6 mph /  5.8 km/h 3.6 mph /  5.8 km/h 71 % 0 in /  0.0 mm
19:40 64.8 °F /  18.2 °C 60.1 °F /  15.6 °C 30.2 in /  1023.9 hPa Calm   1 mph /  1.6 km/h 85 % 0 in /  0.0 mm
19:41 69.4 °F /  20.8 °C 59.5 °F /  15.3 °C 30.2 in /  1021.9 hPa WSW 4.6 mph /  7.4 km/h 4.6 mph /  7.4 km/h 71 % 0 in /  0.0 mm
19:46 69.1 °F /  20.6 °C 59.4 °F /  15.2 °C 30.2 in /  1021.9 hPa SW 6.9 mph /  11.1 km/h 6.9 mph /  11.1 km/h 71 % 0 in /  0.0 mm
19:50 64.6 °F /  18.1 °C 60.1 °F /  15.6 °C 30.2 in /  1022.9 hPa Calm     85 % 0 in /  0.0 mm
19:51 68.9 °F /  20.5 °C 59.5 °F /  15.3 °C 30.2 in /  1021.9 hPa SW 4.6 mph /  7.4 km/h 4.6 mph /  7.4 km/h 72 % 0 in /  0.0 mm
19:56 68.7 °F /  20.4 °C 59.4 °F /  15.2 °C 30.2 in /  1021.9 hPa WSW 5.8 mph /  9.3 km/h 5.8 mph /  9.3 km/h 72 % 0 in /  0.0 mm
20:00 64.2 °F /  17.9 °C 59.9 °F /  15.5 °C 30.2 in /  1023.9 hPa Calm     86 % 0 in /  0.0 mm
20:06 68.5 °F /  20.3 °C 59.5 °F /  15.3 °C 30.2 in /  1021.9 hPa West 4.6 mph /  7.4 km/h 4.6 mph /  7.4 km/h 73 % 0 in /  0.0 mm
20:10 64 °F /  17.8 °C 59.7 °F /  15.4 °C 30.2 in /  1023.9 hPa Calm   1 mph /  1.6 km/h 86 % 0 in /  0.0 mm
20:11 68.4 °F /  20.2 °C 59.4 °F /  15.2 °C 30.2 in /  1021.9 hPa WSW 5.8 mph /  9.3 km/h 5.8 mph /  9.3 km/h 73 % 0 in /  0.0 mm
20:16 68.2 °F /  20.1 °C 59.2 °F /  15.1 °C 30.2 in /  1022.9 hPa WSW 5.8 mph /  9.3 km/h 5.8 mph /  9.3 km/h 73 % 0 in /  0.0 mm
20:20 63.7 °F /  17.6 °C 59.4 °F /  15.2 °C 30.2 in /  1022.9 hPa Calm     86 % 0 in /  0.0 mm
20:21 68.2 °F /  20.1 °C 59.5 °F /  15.3 °C 30.2 in /  1022.9 hPa SW 2.4 mph /  3.9 km/h 2.4 mph /  3.9 km/h 74 % 0 in /  0.0 mm
20:26 68 °F /  20.0 °C 59.4 °F /  15.2 °C 30.2 in /  1022.9 hPa SW 3.5 mph /  5.6 km/h 3.5 mph /  5.6 km/h 74 % 0 in /  0.0 mm
20:30 63.5 °F /  17.5 °C 59.2 °F /  15.1 °C 30.2 in /  1022.9 hPa Calm     86 % 0 in /  0.0 mm
20:31 67.8 °F /  19.9 °C 59.5 °F /  15.3 °C 30.2 in /  1022.9 hPa SSW 3.5 mph /  5.6 km/h 3.5 mph /  5.6 km/h 75 % 0 in /  0.0 mm
20:36 67.8 °F /  19.9 °C 59.5 °F /  15.3 °C 30.2 in /  1022.9 hPa South 3.6 mph /  5.8 km/h 3.6 mph /  5.8 km/h 75 % 0 in /  0.0 mm
20:40 63.3 °F /  17.4 °C 59.2 °F /  15.1 °C 30.2 in /  1022.9 hPa Calm     86 % 0 in /  0.0 mm
20:41 67.5 °F /  19.7 °C 59.5 °F /  15.3 °C 30.2 in /  1022.9 hPa SW 3.5 mph /  5.6 km/h 3.5 mph /  5.6 km/h 76 % 0 in /  0.0 mm
20:46 67.5 °F /  19.7 °C 59.5 °F /  15.3 °C 30.2 in /  1022.9 hPa SW 3.5 mph /  5.6 km/h 3.5 mph /  5.6 km/h 76 % 0 in /  0.0 mm
20:50 63.1 °F /  17.3 °C 59.2 °F /  15.1 °C 30.2 in /  1023.9 hPa Calm     87 % 0 in /  0.0 mm
20:51 67.3 °F /  19.6 °C 59.5 °F /  15.3 °C 30.2 in /  1022.9 hPa WSW 2.3 mph /  3.7 km/h 2.3 mph /  3.7 km/h 76 % 0 in /  0.0 mm
20:56 67.1 °F /  19.5 °C 59.4 °F /  15.2 °C 30.2 in /  1022.9 hPa SSW 1.2 mph /  1.9 km/h 1.2 mph /  1.9 km/h 76 % 0 in /  0.0 mm
21:01 67.1 °F /  19.5 °C 59.5 °F /  15.3 °C 30.2 in /  1022.9 hPa WSW 2.3 mph /  3.7 km/h 2.3 mph /  3.7 km/h 77 % 0 in /  0.0 mm
21:06 67.1 °F /  19.5 °C 59.5 °F /  15.3 °C 30.2 in /  1022.9 hPa West 4.6 mph /  7.4 km/h 4.6 mph /  7.4 km/h 77 % 0 in /  0.0 mm
21:10 62.2 °F /  16.8 °C 58.3 °F /  14.6 °C 30.2 in /  1023.9 hPa Calm   1 mph /  1.6 km/h 87 % 0 in /  0.0 mm
21:16 66.7 °F /  19.3 °C 59.4 °F /  15.2 °C 30.2 in /  1022.9 hPa WSW 1.2 mph /  1.9 km/h   77 % 0 in /  0.0 mm
21:20 62.1 °F /  16.7 °C 58.1 °F /  14.5 °C 30.2 in /  1023.9 hPa Calm   2 mph /  3.2 km/h 87 % 0 in /  0.0 mm
21:26 66.6 °F /  19.2 °C 59.5 °F /  15.3 °C 30.2 in /  1022.9 hPa WSW 1.4 mph /  2.3 km/h 1.4 mph /  2.3 km/h 78 % 0 in /  0.0 mm
21:30 61.9 °F /  16.6 °C 58.3 °F /  14.6 °C 30.2 in /  1023.9 hPa Calm     88 % 0 in /  0.0 mm
21:31 66.6 °F /  19.2 °C 59.2 °F /  15.1 °C 30.2 in /  1022.9 hPa SW 3.5 mph /  5.6 km/h 3.5 mph /  5.6 km/h 77 % 0 in /  0.0 mm
21:36 66.4 °F /  19.1 °C 59.4 °F /  15.2 °C 30.2 in /  1022.9 hPa WSW 2.6 mph /  4.2 km/h 2.6 mph /  4.2 km/h 78 % 0 in /  0.0 mm
21:40 61.5 °F /  16.4 °C 57.9 °F /  14.4 °C 30.2 in /  1023.9 hPa Calm     88 % 0 in /  0.0 mm
21:41 66.4 °F /  19.1 °C 59.4 °F /  15.2 °C 30.2 in /  1022.9 hPa WSW 2.3 mph /  3.7 km/h 2.3 mph /  3.7 km/h 78 % 0 in /  0.0 mm
21:46 66.2 °F /  19.0 °C 59.5 °F /  15.3 °C 30.2 in /  1022.9 hPa SW 2.9 mph /  4.7 km/h 2.9 mph /  4.7 km/h 79 % 0 in /  0.0 mm
21:50 61.3 °F /  16.3 °C 57.7 °F /  14.3 °C 30.2 in /  1023.9 hPa Calm     88 % 0 in /  0.0 mm
21:51 66.2 °F /  19.0 °C 59.2 °F /  15.1 °C 30.2 in /  1022.9 hPa WNW 2.4 mph /  3.9 km/h 2.4 mph /  3.9 km/h 78 % 0 in /  0.0 mm
21:56 66.2 °F /  19.0 °C 59.5 °F /  15.3 °C 30.2 in /  1022.9 hPa West 3.5 mph /  5.6 km/h 3.5 mph /  5.6 km/h 79 % 0 in /  0.0 mm
22:00 61.3 °F /  16.3 °C 57.7 °F /  14.3 °C 30.2 in /  1022.9 hPa Calm     88 % 0 in /  0.0 mm
22:01 66.2 °F /  19.0 °C 59.5 °F /  15.3 °C 30.2 in /  1022.9 hPa SW 2.3 mph /  3.7 km/h 2.3 mph /  3.7 km/h 79 % 0 in /  0.0 mm
22:06 66.2 °F /  19.0 °C 59.5 °F /  15.3 °C 30.2 in /  1022.9 hPa SW 2.3 mph /  3.7 km/h 2.3 mph /  3.7 km/h 79 % 0 in /  0.0 mm
22:10 61.2 °F /  16.2 °C 57.9 °F /  14.4 °C 30.2 in /  1022.9 hPa Calm     89 % 0 in /  0.0 mm
22:11 66.2 °F /  19.0 °C 59.7 °F /  15.4 °C 30.2 in /  1022.9 hPa SW 1.4 mph /  2.3 km/h 1.4 mph /  2.3 km/h 80 % 0 in /  0.0 mm
22:16 66 °F /  18.9 °C 60.1 °F /  15.6 °C 30.2 in /  1023.9 hPa SW 2.9 mph /  4.7 km/h 2.9 mph /  4.7 km/h 81 % 0 in /  0.0 mm
22:20 61.2 °F /  16.2 °C 57.9 °F /  14.4 °C 30.2 in /  1022.9 hPa Calm     89 % 0 in /  0.0 mm
22:21 66 °F /  18.9 °C 60.1 °F /  15.6 °C 30.2 in /  1023.9 hPa SW 2.3 mph /  3.7 km/h 2.3 mph /  3.7 km/h 81 % 0 in /  0.0 mm
22:26 65.8 °F /  18.8 °C 59.7 °F /  15.4 °C 30.2 in /  1023.9 hPa SW 2.3 mph /  3.7 km/h 2.3 mph /  3.7 km/h 81 % 0 in /  0.0 mm
22:30 61 °F /  16.1 °C 57.7 °F /  14.3 °C 30.2 in /  1022.9 hPa Calm     89 % 0 in /  0.0 mm
22:31 65.8 °F /  18.8 °C 60.3 °F /  15.7 °C 30.2 in /  1023.9 hPa WSW 2.2 mph /  3.5 km/h 2.2 mph /  3.5 km/h 82 % 0 in /  0.0 mm
22:36 65.7 °F /  18.7 °C 60.1 °F /  15.6 °C 30.2 in /  1023.9 hPa WSW 1.2 mph /  1.9 km/h   82 % 0 in /  0.0 mm
22:40 60.4 °F /  15.8 °C 57.2 °F /  14.0 °C 30.2 in /  1022.9 hPa Calm     89 % 0 in /  0.0 mm
22:41 65.7 °F /  18.7 °C 60.1 °F /  15.6 °C 30.2 in /  1023.9 hPa West 1.2 mph /  1.9 km/h   82 % 0 in /  0.0 mm
22:46 65.7 °F /  18.7 °C 60.1 °F /  15.6 °C 30.2 in /  1023.9 hPa West 2.3 mph /  3.7 km/h   82 % 0 in /  0.0 mm
22:51 65.7 °F /  18.7 °C 60.4 °F /  15.8 °C 30.2 in /  1023.9 hPa Calm     83 % 0 in /  0.0 mm
22:52 65.7 °F /  18.7 °C 60.4 °F /  15.8 °C 30.2 in /  1023.9 hPa Calm     83 % 0 in /  0.0 mm
22:57 65.5 °F /  18.6 °C 60.3 °F /  15.7 °C 30.2 in /  1023.9 hPa Calm     83 % 0 in /  0.0 mm
23:00 59.9 °F /  15.5 °C 56.3 °F /  13.5 °C 30.2 in /  1023.9 hPa SSE 1 mph /  1.6 km/h 2 mph /  3.2 km/h 88 % 0 in /  0.0 mm
23:02 65.5 °F /  18.6 °C 60.3 °F /  15.7 °C 30.2 in /  1023.9 hPa Calm     83 % 0 in /  0.0 mm
23:07 65.5 °F /  18.6 °C 60.3 °F /  15.7 °C 30.2 in /  1023.9 hPa West 1.6 mph /  2.6 km/h 1.6 mph /  2.6 km/h 83 % 0 in /  0.0 mm
23:10 59.9 °F /  15.5 °C 56.7 °F /  13.7 °C 30.2 in /  1023.9 hPa SW 1 mph /  1.6 km/h 2 mph /  3.2 km/h 89 % 0 in /  0.0 mm
23:12 65.5 °F /  18.6 °C 60.3 °F /  15.7 °C 30.2 in /  1023.9 hPa West 2.3 mph /  3.7 km/h 2.3 mph /  3.7 km/h 83 % 0 in /  0.0 mm
23:17 65.5 °F /  18.6 °C 59.7 °F /  15.4 °C 30.2 in /  1023.9 hPa West 2.3 mph /  3.7 km/h 2.3 mph /  3.7 km/h 82 % 0 in /  0.0 mm
23:20 59.7 °F /  15.4 °C 56.5 °F /  13.6 °C 30.2 in /  1023.9 hPa SW 1 mph /  1.6 km/h 2 mph /  3.2 km/h 89 % 0 in /  0.0 mm
23:22 65.3 °F /  18.5 °C 60.1 °F /  15.6 °C 30.2 in /  1023.9 hPa Calm     83 % 0 in /  0.0 mm
23:27 65.3 °F /  18.5 °C 60.1 °F /  15.6 °C 30.2 in /  1023.9 hPa West 1.2 mph /  1.9 km/h   83 % 0 in /  0.0 mm
23:32 65.3 °F /  18.5 °C 60.1 °F /  15.6 °C 30.2 in /  1023.9 hPa West 2.3 mph /  3.7 km/h 2.3 mph /  3.7 km/h 83 % 0 in /  0.0 mm
23:37 65.3 °F /  18.5 °C 60.1 °F /  15.6 °C 30.2 in /  1023.9 hPa West 1.4 mph /  2.3 km/h 1.4 mph /  2.3 km/h 83 % 0 in /  0.0 mm
23:40 59.5 °F /  15.3 °C 56.3 °F /  13.5 °C 30.2 in /  1023.9 hPa SW 1 mph /  1.6 km/h 2 mph /  3.2 km/h 89 % 0 in /  0.0 mm
23:47 65.3 °F /  18.5 °C 60.3 °F /  15.7 °C 30.2 in /  1023.9 hPa Calm     84 % 0 in /  0.0 mm
23:50 59.2 °F /  15.1 °C 56.1 °F /  13.4 °C 30.2 in /  1023.9 hPa Calm   2 mph /  3.2 km/h 90 % 0 in /  0.0 mm
23:52 65.1 °F /  18.4 °C 60.3 °F /  15.7 °C 30.2 in /  1023.9 hPa Calm     84 % 0 in /  0.0 mm
23:57 64.9 °F /  18.3 °C 60.1 °F /  15.6 °C 30.2 in /  1023.9 hPa Calm     84 % 0 in /  0.0 mm
Meteo Sesrovires
Elogis d' Weather Underground - 3.75 mb

Guio original per  Jim McMurry - jmcmurry@mwt.net Adaptat per a la plantilla per  Wim van der Kuil - Leuven-Template.eu

Trobareu la nostra informacio del temps tambe a:

Weather Underground

AWEKAS